sensor_id;sensor_type;location;lat;lon;timestamp;temperature;humidity
20650;DHT22;10484;48.736;9.332;2023-09-12T00:00:47;21.50;1.00
20650;DHT22;10484;48.736;9.332;2023-09-12T00:03:13;21.40;1.00
20650;DHT22;10484;48.736;9.332;2023-09-12T00:05:38;21.40;1.00
20650;DHT22;10484;48.736;9.332;2023-09-12T00:08:04;21.40;1.00
20650;DHT22;10484;48.736;9.332;2023-09-12T00:10:31;21.40;1.00
20650;DHT22;10484;48.736;9.332;2023-09-12T00:12:57;21.40;1.00
20650;DHT22;10484;48.736;9.332;2023-09-12T00:15:23;21.30;1.00
20650;DHT22;10484;48.736;9.332;2023-09-12T00:17:49;21.30;1.00
20650;DHT22;10484;48.736;9.332;2023-09-12T00:20:15;21.30;1.00
20650;DHT22;10484;48.736;9.332;2023-09-12T00:22:40;21.20;1.00
20650;DHT22;10484;48.736;9.332;2023-09-12T00:25:06;21.20;1.00
20650;DHT22;10484;48.736;9.332;2023-09-12T00:27:32;21.20;1.00
20650;DHT22;10484;48.736;9.332;2023-09-12T00:29:57;21.20;1.00
20650;DHT22;10484;48.736;9.332;2023-09-12T00:32:23;21.20;1.00
20650;DHT22;10484;48.736;9.332;2023-09-12T00:34:49;21.10;1.00
20650;DHT22;10484;48.736;9.332;2023-09-12T00:37:14;21.00;1.00
20650;DHT22;10484;48.736;9.332;2023-09-12T00:39:40;21.00;1.00
20650;DHT22;10484;48.736;9.332;2023-09-12T00:42:05;20.90;1.00
20650;DHT22;10484;48.736;9.332;2023-09-12T00:44:33;20.90;1.00
20650;DHT22;10484;48.736;9.332;2023-09-12T00:47:00;20.90;1.00
20650;DHT22;10484;48.736;9.332;2023-09-12T00:49:27;20.90;1.00
20650;DHT22;10484;48.736;9.332;2023-09-12T00:51:54;20.90;1.00
20650;DHT22;10484;48.736;9.332;2023-09-12T00:54:20;20.80;1.00
20650;DHT22;10484;48.736;9.332;2023-09-12T00:56:46;20.80;1.00
20650;DHT22;10484;48.736;9.332;2023-09-12T00:59:12;20.70;1.00
20650;DHT22;10484;48.736;9.332;2023-09-12T01:01:38;20.70;1.00
20650;DHT22;10484;48.736;9.332;2023-09-12T01:04:04;20.70;1.00
20650;DHT22;10484;48.736;9.332;2023-09-12T01:06:31;20.60;1.00
20650;DHT22;10484;48.736;9.332;2023-09-12T01:08:59;20.60;1.00
20650;DHT22;10484;48.736;9.332;2023-09-12T01:11:24;20.60;1.00
20650;DHT22;10484;48.736;9.332;2023-09-12T01:13:50;20.60;1.00
20650;DHT22;10484;48.736;9.332;2023-09-12T01:16:16;20.60;1.00
20650;DHT22;10484;48.736;9.332;2023-09-12T01:18:41;20.50;1.00
20650;DHT22;10484;48.736;9.332;2023-09-12T01:24:52;20.40;1.00
20650;DHT22;10484;48.736;9.332;2023-09-12T01:27:34;20.40;1.00
20650;DHT22;10484;48.736;9.332;2023-09-12T01:30:05;20.30;1.00
20650;DHT22;10484;48.736;9.332;2023-09-12T01:32:32;20.30;1.00
20650;DHT22;10484;48.736;9.332;2023-09-12T01:34:58;20.30;1.00
20650;DHT22;10484;48.736;9.332;2023-09-12T01:37:24;20.20;1.00
20650;DHT22;10484;48.736;9.332;2023-09-12T01:47:11;20.20;1.00
20650;DHT22;10484;48.736;9.332;2023-09-12T01:49:39;20.10;1.00
20650;DHT22;10484;48.736;9.332;2023-09-12T01:52:06;20.10;1.00
20650;DHT22;10484;48.736;9.332;2023-09-12T01:54:34;20.10;1.00
20650;DHT22;10484;48.736;9.332;2023-09-12T01:57:00;20.00;1.00
20650;DHT22;10484;48.736;9.332;2023-09-12T01:59:27;20.00;1.00
20650;DHT22;10484;48.736;9.332;2023-09-12T02:01:53;20.00;1.00
20650;DHT22;10484;48.736;9.332;2023-09-12T02:04:19;20.00;1.00
20650;DHT22;10484;48.736;9.332;2023-09-12T02:06:44;20.00;1.00
20650;DHT22;10484;48.736;9.332;2023-09-12T02:09:10;19.90;1.00
20650;DHT22;10484;48.736;9.332;2023-09-12T02:11:35;19.90;1.00
20650;DHT22;10484;48.736;9.332;2023-09-12T02:14:01;19.90;1.00
20650;DHT22;10484;48.736;9.332;2023-09-12T02:16:26;19.90;1.00
20650;DHT22;10484;48.736;9.332;2023-09-12T02:18:52;19.80;1.00
20650;DHT22;10484;48.736;9.332;2023-09-12T02:21:17;19.70;1.00
20650;DHT22;10484;48.736;9.332;2023-09-12T02:23:43;19.70;1.00
20650;DHT22;10484;48.736;9.332;2023-09-12T02:26:09;19.70;1.00
20650;DHT22;10484;48.736;9.332;2023-09-12T02:28:34;19.70;1.00
20650;DHT22;10484;48.736;9.332;2023-09-12T02:31:00;19.70;1.00
20650;DHT22;10484;48.736;9.332;2023-09-12T02:33:26;19.70;1.00
20650;DHT22;10484;48.736;9.332;2023-09-12T02:35:51;19.70;1.00
20650;DHT22;10484;48.736;9.332;2023-09-12T02:38:18;19.60;1.00
20650;DHT22;10484;48.736;9.332;2023-09-12T02:40:43;19.60;1.00
20650;DHT22;10484;48.736;9.332;2023-09-12T02:43:09;19.60;1.00
20650;DHT22;10484;48.736;9.332;2023-09-12T02:45:35;19.60;1.00
20650;DHT22;10484;48.736;9.332;2023-09-12T02:48:00;19.50;1.00
20650;DHT22;10484;48.736;9.332;2023-09-12T02:50:26;19.50;1.00
20650;DHT22;10484;48.736;9.332;2023-09-12T02:52:52;19.50;1.00
20650;DHT22;10484;48.736;9.332;2023-09-12T02:55:17;19.40;1.00
20650;DHT22;10484;48.736;9.332;2023-09-12T02:57:43;19.40;1.00
20650;DHT22;10484;48.736;9.332;2023-09-12T03:00:09;19.40;1.00
20650;DHT22;10484;48.736;9.332;2023-09-12T03:02:34;19.40;1.00
20650;DHT22;10484;48.736;9.332;2023-09-12T03:05:00;19.40;1.00
20650;DHT22;10484;48.736;9.332;2023-09-12T03:07:29;19.40;1.00
20650;DHT22;10484;48.736;9.332;2023-09-12T03:09:55;19.40;1.00
20650;DHT22;10484;48.736;9.332;2023-09-12T03:12:21;19.30;1.00
20650;DHT22;10484;48.736;9.332;2023-09-12T03:14:46;19.30;1.00
20650;DHT22;10484;48.736;9.332;2023-09-12T03:17:12;19.30;1.00
20650;DHT22;10484;48.736;9.332;2023-09-12T03:19:37;19.30;1.00
20650;DHT22;10484;48.736;9.332;2023-09-12T03:22:03;19.20;1.00
20650;DHT22;10484;48.736;9.332;2023-09-12T03:24:29;19.20;1.00
20650;DHT22;10484;48.736;9.332;2023-09-12T03:26:55;19.20;1.00
20650;DHT22;10484;48.736;9.332;2023-09-12T03:29:20;19.20;1.00
20650;DHT22;10484;48.736;9.332;2023-09-12T03:31:46;19.20;1.00
20650;DHT22;10484;48.736;9.332;2023-09-12T03:34:11;19.10;1.00
20650;DHT22;10484;48.736;9.332;2023-09-12T03:36:37;19.10;1.00
20650;DHT22;10484;48.736;9.332;2023-09-12T03:39:03;19.10;1.00
20650;DHT22;10484;48.736;9.332;2023-09-12T03:41:30;19.10;1.00
20650;DHT22;10484;48.736;9.332;2023-09-12T03:43:56;19.00;1.00
20650;DHT22;10484;48.736;9.332;2023-09-12T03:46:22;19.00;1.00
20650;DHT22;10484;48.736;9.332;2023-09-12T03:48:48;19.00;1.00
20650;DHT22;10484;48.736;9.332;2023-09-12T03:51:14;18.90;1.00
20650;DHT22;10484;48.736;9.332;2023-09-12T03:53:40;18.90;1.00
20650;DHT22;10484;48.736;9.332;2023-09-12T03:56:05;18.90;1.00
20650;DHT22;10484;48.736;9.332;2023-09-12T03:58:31;18.90;1.00
20650;DHT22;10484;48.736;9.332;2023-09-12T04:00:57;18.90;1.00
20650;DHT22;10484;48.736;9.332;2023-09-12T04:03:23;18.90;1.00
20650;DHT22;10484;48.736;9.332;2023-09-12T04:05:49;18.90;1.00
20650;DHT22;10484;48.736;9.332;2023-09-12T04:08:15;18.80;1.00
20650;DHT22;10484;48.736;9.332;2023-09-12T04:10:40;18.80;1.00
20650;DHT22;10484;48.736;9.332;2023-09-12T04:13:06;18.70;1.00
20650;DHT22;10484;48.736;9.332;2023-09-12T04:15:32;18.70;1.00
20650;DHT22;10484;48.736;9.332;2023-09-12T04:17:57;18.70;1.00
20650;DHT22;10484;48.736;9.332;2023-09-12T04:20:23;18.70;1.00
20650;DHT22;10484;48.736;9.332;2023-09-12T04:22:48;18.70;1.00
20650;DHT22;10484;48.736;9.332;2023-09-12T04:25:14;18.60;1.00
20650;DHT22;10484;48.736;9.332;2023-09-12T04:27:41;18.60;1.00
20650;DHT22;10484;48.736;9.332;2023-09-12T04:30:07;18.60;1.00
20650;DHT22;10484;48.736;9.332;2023-09-12T04:32:33;18.50;1.00
20650;DHT22;10484;48.736;9.332;2023-09-12T04:34:59;18.50;1.00
20650;DHT22;10484;48.736;9.332;2023-09-12T04:37:24;18.50;1.00
20650;DHT22;10484;48.736;9.332;2023-09-12T04:39:50;18.50;1.00
20650;DHT22;10484;48.736;9.332;2023-09-12T04:42:15;18.50;1.00
20650;DHT22;10484;48.736;9.332;2023-09-12T04:44:41;18.50;1.00
20650;DHT22;10484;48.736;9.332;2023-09-12T04:47:08;18.40;1.00
20650;DHT22;10484;48.736;9.332;2023-09-12T04:49:34;18.40;1.00
20650;DHT22;10484;48.736;9.332;2023-09-12T04:52:00;18.40;1.00
20650;DHT22;10484;48.736;9.332;2023-09-12T04:54:26;18.40;1.00
20650;DHT22;10484;48.736;9.332;2023-09-12T04:56:51;18.40;1.00
20650;DHT22;10484;48.736;9.332;2023-09-12T04:59:17;18.40;1.00
20650;DHT22;10484;48.736;9.332;2023-09-12T05:01:43;18.30;1.00
20650;DHT22;10484;48.736;9.332;2023-09-12T05:04:08;18.30;1.00
20650;DHT22;10484;48.736;9.332;2023-09-12T05:06:35;18.30;1.00
20650;DHT22;10484;48.736;9.332;2023-09-12T05:09:00;18.30;1.00
20650;DHT22;10484;48.736;9.332;2023-09-12T05:11:26;18.30;1.00
20650;DHT22;10484;48.736;9.332;2023-09-12T05:13:52;18.30;1.00
20650;DHT22;10484;48.736;9.332;2023-09-12T05:16:17;18.30;1.00
20650;DHT22;10484;48.736;9.332;2023-09-12T05:18:43;18.30;1.00
20650;DHT22;10484;48.736;9.332;2023-09-12T05:21:09;18.30;1.00
20650;DHT22;10484;48.736;9.332;2023-09-12T05:23:34;18.30;1.00
20650;DHT22;10484;48.736;9.332;2023-09-12T05:26:00;18.30;1.00
20650;DHT22;10484;48.736;9.332;2023-09-12T05:28:26;18.30;1.00
20650;DHT22;10484;48.736;9.332;2023-09-12T05:30:52;18.30;1.00
20650;DHT22;10484;48.736;9.332;2023-09-12T05:33:18;18.30;1.00
20650;DHT22;10484;48.736;9.332;2023-09-12T05:35:44;18.30;1.00
20650;DHT22;10484;48.736;9.332;2023-09-12T05:38:12;18.30;1.00
20650;DHT22;10484;48.736;9.332;2023-09-12T05:40:38;18.30;1.00
20650;DHT22;10484;48.736;9.332;2023-09-12T05:43:04;18.30;1.00
20650;DHT22;10484;48.736;9.332;2023-09-12T05:45:29;18.30;1.00
20650;DHT22;10484;48.736;9.332;2023-09-12T05:47:58;18.20;1.00
20650;DHT22;10484;48.736;9.332;2023-09-12T05:50:23;18.30;1.00
20650;DHT22;10484;48.736;9.332;2023-09-12T05:52:49;18.20;1.00
20650;DHT22;10484;48.736;9.332;2023-09-12T05:55:15;18.20;1.00
20650;DHT22;10484;48.736;9.332;2023-09-12T05:57:41;18.30;1.00
20650;DHT22;10484;48.736;9.332;2023-09-12T06:00:07;18.30;1.00
20650;DHT22;10484;48.736;9.332;2023-09-12T06:02:38;18.30;1.00
20650;DHT22;10484;48.736;9.332;2023-09-12T06:05:03;18.30;1.00
20650;DHT22;10484;48.736;9.332;2023-09-12T06:07:29;18.30;1.00
20650;DHT22;10484;48.736;9.332;2023-09-12T06:09:55;18.30;1.00
20650;DHT22;10484;48.736;9.332;2023-09-12T06:12:21;18.40;1.00
20650;DHT22;10484;48.736;9.332;2023-09-12T06:14:46;18.40;1.00
20650;DHT22;10484;48.736;9.332;2023-09-12T06:17:12;18.40;1.00
20650;DHT22;10484;48.736;9.332;2023-09-12T06:19:37;18.40;1.00
20650;DHT22;10484;48.736;9.332;2023-09-12T06:22:04;18.50;1.00
20650;DHT22;10484;48.736;9.332;2023-09-12T06:24:30;18.50;1.00
20650;DHT22;10484;48.736;9.332;2023-09-12T06:26:55;18.50;1.00
20650;DHT22;10484;48.736;9.332;2023-09-12T06:29:22;18.60;1.00
20650;DHT22;10484;48.736;9.332;2023-09-12T06:31:48;18.60;1.00
20650;DHT22;10484;48.736;9.332;2023-09-12T06:34:13;18.70;1.00
20650;DHT22;10484;48.736;9.332;2023-09-12T06:36:39;18.70;1.00
20650;DHT22;10484;48.736;9.332;2023-09-12T06:39:06;18.70;1.00
20650;DHT22;10484;48.736;9.332;2023-09-12T06:41:32;18.80;1.00
20650;DHT22;10484;48.736;9.332;2023-09-12T06:43:58;18.80;1.00
20650;DHT22;10484;48.736;9.332;2023-09-12T06:46:24;18.90;1.00
20650;DHT22;10484;48.736;9.332;2023-09-12T06:48:50;18.90;1.00
20650;DHT22;10484;48.736;9.332;2023-09-12T06:51:16;18.90;1.00
20650;DHT22;10484;48.736;9.332;2023-09-12T06:53:42;18.90;1.00
20650;DHT22;10484;48.736;9.332;2023-09-12T06:56:08;19.00;1.00
20650;DHT22;10484;48.736;9.332;2023-09-12T06:58:34;19.00;1.00
20650;DHT22;10484;48.736;9.332;2023-09-12T07:01:06;19.00;1.00
20650;DHT22;10484;48.736;9.332;2023-09-12T07:03:33;19.00;1.00
20650;DHT22;10484;48.736;9.332;2023-09-12T07:05:59;19.00;1.00
20650;DHT22;10484;48.736;9.332;2023-09-12T07:08:25;19.10;1.00
20650;DHT22;10484;48.736;9.332;2023-09-12T07:10:51;19.10;1.00
20650;DHT22;10484;48.736;9.332;2023-09-12T07:13:16;19.10;1.00
20650;DHT22;10484;48.736;9.332;2023-09-12T07:15:42;19.10;1.00
20650;DHT22;10484;48.736;9.332;2023-09-12T07:18:07;19.20;1.00
20650;DHT22;10484;48.736;9.332;2023-09-12T07:20:36;19.20;1.00
20650;DHT22;10484;48.736;9.332;2023-09-12T07:23:01;19.20;1.00
20650;DHT22;10484;48.736;9.332;2023-09-12T07:25:27;19.20;1.00
20650;DHT22;10484;48.736;9.332;2023-09-12T07:27:52;19.20;1.00
20650;DHT22;10484;48.736;9.332;2023-09-12T07:30:18;19.30;1.00
20650;DHT22;10484;48.736;9.332;2023-09-12T07:32:44;19.30;1.00
20650;DHT22;10484;48.736;9.332;2023-09-12T07:35:10;19.40;1.00
20650;DHT22;10484;48.736;9.332;2023-09-12T07:37:35;19.40;1.00
20650;DHT22;10484;48.736;9.332;2023-09-12T07:40:01;19.40;1.00
20650;DHT22;10484;48.736;9.332;2023-09-12T07:42:31;19.40;1.00
20650;DHT22;10484;48.736;9.332;2023-09-12T07:44:57;19.40;1.00
20650;DHT22;10484;48.736;9.332;2023-09-12T07:47:23;19.40;1.00
20650;DHT22;10484;48.736;9.332;2023-09-12T07:49:55;19.50;1.00
20650;DHT22;10484;48.736;9.332;2023-09-12T07:52:21;19.60;1.00
20650;DHT22;10484;48.736;9.332;2023-09-12T07:54:46;19.70;1.00
20650;DHT22;10484;48.736;9.332;2023-09-12T07:57:12;19.70;1.00
20650;DHT22;10484;48.736;9.332;2023-09-12T07:59:38;19.80;1.00
20650;DHT22;10484;48.736;9.332;2023-09-12T08:02:03;19.90;1.00
20650;DHT22;10484;48.736;9.332;2023-09-12T08:04:29;19.90;1.00
20650;DHT22;10484;48.736;9.332;2023-09-12T08:06:55;20.00;1.00
20650;DHT22;10484;48.736;9.332;2023-09-12T08:09:20;20.10;1.00
20650;DHT22;10484;48.736;9.332;2023-09-12T08:11:46;20.10;1.00
20650;DHT22;10484;48.736;9.332;2023-09-12T08:14:11;20.20;1.00
20650;DHT22;10484;48.736;9.332;2023-09-12T08:16:37;20.20;1.00
20650;DHT22;10484;48.736;9.332;2023-09-12T08:19:04;20.30;1.00
20650;DHT22;10484;48.736;9.332;2023-09-12T08:21:29;20.30;1.00
20650;DHT22;10484;48.736;9.332;2023-09-12T08:23:55;20.40;1.00
20650;DHT22;10484;48.736;9.332;2023-09-12T08:26:20;20.50;1.00
20650;DHT22;10484;48.736;9.332;2023-09-12T08:28:46;20.60;1.00
20650;DHT22;10484;48.736;9.332;2023-09-12T08:31:11;20.70;1.00
20650;DHT22;10484;48.736;9.332;2023-09-12T08:33:37;20.90;1.00
20650;DHT22;10484;48.736;9.332;2023-09-12T08:36:03;20.90;1.00
20650;DHT22;10484;48.736;9.332;2023-09-12T08:38:29;21.00;1.00
20650;DHT22;10484;48.736;9.332;2023-09-12T08:40:54;21.10;1.00
20650;DHT22;10484;48.736;9.332;2023-09-12T08:43:20;21.20;1.00
20650;DHT22;10484;48.736;9.332;2023-09-12T08:45:46;21.30;1.00
20650;DHT22;10484;48.736;9.332;2023-09-12T08:48:13;21.30;1.00
20650;DHT22;10484;48.736;9.332;2023-09-12T08:50:40;21.30;1.00
20650;DHT22;10484;48.736;9.332;2023-09-12T08:53:06;21.40;1.00
20650;DHT22;10484;48.736;9.332;2023-09-12T08:55:32;21.50;1.00
20650;DHT22;10484;48.736;9.332;2023-09-12T08:58:02;21.60;1.00
20650;DHT22;10484;48.736;9.332;2023-09-12T09:00:28;21.70;1.00
20650;DHT22;10484;48.736;9.332;2023-09-12T09:02:54;21.80;1.00
20650;DHT22;10484;48.736;9.332;2023-09-12T09:05:21;21.90;1.00
20650;DHT22;10484;48.736;9.332;2023-09-12T09:07:48;22.00;1.00
20650;DHT22;10484;48.736;9.332;2023-09-12T09:10:16;22.10;1.00
20650;DHT22;10484;48.736;9.332;2023-09-12T09:12:44;22.20;1.00
20650;DHT22;10484;48.736;9.332;2023-09-12T09:15:21;22.30;1.00
20650;DHT22;10484;48.736;9.332;2023-09-12T09:17:47;22.40;1.00
20650;DHT22;10484;48.736;9.332;2023-09-12T09:20:40;22.50;1.00
20650;DHT22;10484;48.736;9.332;2023-09-12T09:23:07;22.60;1.00
20650;DHT22;10484;48.736;9.332;2023-09-12T09:25:40;22.70;1.00
20650;DHT22;10484;48.736;9.332;2023-09-12T09:28:20;22.80;1.00
20650;DHT22;10484;48.736;9.332;2023-09-12T09:30:50;23.00;1.00
20650;DHT22;10484;48.736;9.332;2023-09-12T09:33:20;23.10;1.00
20650;DHT22;10484;48.736;9.332;2023-09-12T09:35:47;23.10;1.00
20650;DHT22;10484;48.736;9.332;2023-09-12T09:38:13;23.20;1.00
20650;DHT22;10484;48.736;9.332;2023-09-12T09:40:44;23.40;1.00
20650;DHT22;10484;48.736;9.332;2023-09-12T09:43:10;23.50;1.00
20650;DHT22;10484;48.736;9.332;2023-09-12T09:45:44;23.60;1.00
20650;DHT22;10484;48.736;9.332;2023-09-12T09:48:23;23.60;1.00
20650;DHT22;10484;48.736;9.332;2023-09-12T09:50:49;23.70;1.00
20650;DHT22;10484;48.736;9.332;2023-09-12T09:53:15;23.80;1.00
20650;DHT22;10484;48.736;9.332;2023-09-12T09:55:40;23.90;1.00
20650;DHT22;10484;48.736;9.332;2023-09-12T09:58:08;24.00;1.00
20650;DHT22;10484;48.736;9.332;2023-09-12T10:00:36;24.20;1.00
20650;DHT22;10484;48.736;9.332;2023-09-12T10:03:04;24.30;1.00
20650;DHT22;10484;48.736;9.332;2023-09-12T10:05:32;24.30;1.00
20650;DHT22;10484;48.736;9.332;2023-09-12T10:07:59;24.50;1.00
20650;DHT22;10484;48.736;9.332;2023-09-12T10:10:29;24.70;1.00
20650;DHT22;10484;48.736;9.332;2023-09-12T10:12:58;24.80;1.00
20650;DHT22;10484;48.736;9.332;2023-09-12T10:15:30;24.80;1.00
20650;DHT22;10484;48.736;9.332;2023-09-12T10:18:00;24.90;1.00
20650;DHT22;10484;48.736;9.332;2023-09-12T10:20:55;25.00;1.00
20650;DHT22;10484;48.736;9.332;2023-09-12T10:23:39;25.20;1.00
20650;DHT22;10484;48.736;9.332;2023-09-12T10:26:11;25.30;1.00
20650;DHT22;10484;48.736;9.332;2023-09-12T10:31:58;25.50;1.00
20650;DHT22;10484;48.736;9.332;2023-09-12T10:34:25;25.60;1.00
20650;DHT22;10484;48.736;9.332;2023-09-12T10:36:51;25.80;1.00
20650;DHT22;10484;48.736;9.332;2023-09-12T10:39:19;25.80;1.00
20650;DHT22;10484;48.736;9.332;2023-09-12T10:41:46;25.90;1.00
20650;DHT22;10484;48.736;9.332;2023-09-12T10:44:16;26.00;1.00
20650;DHT22;10484;48.736;9.332;2023-09-12T10:46:44;26.10;1.00
20650;DHT22;10484;48.736;9.332;2023-09-12T10:49:12;26.10;1.00
20650;DHT22;10484;48.736;9.332;2023-09-12T10:51:42;26.20;1.00
20650;DHT22;10484;48.736;9.332;2023-09-12T10:54:09;26.30;1.00
20650;DHT22;10484;48.736;9.332;2023-09-12T10:56:37;26.40;1.00
20650;DHT22;10484;48.736;9.332;2023-09-12T11:01:44;26.60;1.00
20650;DHT22;10484;48.736;9.332;2023-09-12T11:06:49;26.80;1.00
20650;DHT22;10484;48.736;9.332;2023-09-12T11:11:58;26.90;1.00
20650;DHT22;10484;48.736;9.332;2023-09-12T11:14:27;27.00;1.00
20650;DHT22;10484;48.736;9.332;2023-09-12T11:19:46;27.40;1.00
20650;DHT22;10484;48.736;9.332;2023-09-12T11:22:25;27.50;1.00
20650;DHT22;10484;48.736;9.332;2023-09-12T11:24:51;27.60;1.00
20650;DHT22;10484;48.736;9.332;2023-09-12T11:34:26;27.90;1.00
20650;DHT22;10484;48.736;9.332;2023-09-12T11:37:23;28.00;1.00
20650;DHT22;10484;48.736;9.332;2023-09-12T11:39:49;28.10;1.00
20650;DHT22;10484;48.736;9.332;2023-09-12T11:42:16;28.20;1.00
20650;DHT22;10484;48.736;9.332;2023-09-12T11:44:41;28.20;1.00
20650;DHT22;10484;48.736;9.332;2023-09-12T11:47:10;28.30;1.00
20650;DHT22;10484;48.736;9.332;2023-09-12T11:49:40;28.40;1.00
20650;DHT22;10484;48.736;9.332;2023-09-12T11:52:13;28.50;1.00
20650;DHT22;10484;48.736;9.332;2023-09-12T11:54:42;28.70;1.00
20650;DHT22;10484;48.736;9.332;2023-09-12T11:57:09;28.80;1.00
20650;DHT22;10484;48.736;9.332;2023-09-12T11:59:40;29.00;1.00
20650;DHT22;10484;48.736;9.332;2023-09-12T12:02:09;29.00;1.00
20650;DHT22;10484;48.736;9.332;2023-09-12T12:04:35;29.10;1.00
20650;DHT22;10484;48.736;9.332;2023-09-12T12:07:02;29.10;1.00
20650;DHT22;10484;48.736;9.332;2023-09-12T12:09:29;29.20;1.00
20650;DHT22;10484;48.736;9.332;2023-09-12T12:11:55;29.20;1.00
20650;DHT22;10484;48.736;9.332;2023-09-12T12:14:25;29.30;1.00
20650;DHT22;10484;48.736;9.332;2023-09-12T12:16:52;29.40;1.00
20650;DHT22;10484;48.736;9.332;2023-09-12T12:19:18;29.50;1.00
20650;DHT22;10484;48.736;9.332;2023-09-12T12:21:43;29.60;1.00
20650;DHT22;10484;48.736;9.332;2023-09-12T12:24:14;29.70;1.00
20650;DHT22;10484;48.736;9.332;2023-09-12T12:26:45;29.80;1.00
20650;DHT22;10484;48.736;9.332;2023-09-12T12:29:11;29.90;1.00
20650;DHT22;10484;48.736;9.332;2023-09-12T12:31:38;30.00;1.00
20650;DHT22;10484;48.736;9.332;2023-09-12T12:34:05;30.00;1.00
20650;DHT22;10484;48.736;9.332;2023-09-12T12:36:31;30.10;1.00
20650;DHT22;10484;48.736;9.332;2023-09-12T12:38:56;30.20;1.00
20650;DHT22;10484;48.736;9.332;2023-09-12T12:41:25;30.20;1.00
20650;DHT22;10484;48.736;9.332;2023-09-12T12:43:52;30.30;1.00
20650;DHT22;10484;48.736;9.332;2023-09-12T12:46:18;30.40;1.00
20650;DHT22;10484;48.736;9.332;2023-09-12T12:48:50;30.40;1.00
20650;DHT22;10484;48.736;9.332;2023-09-12T12:51:21;30.50;1.00
20650;DHT22;10484;48.736;9.332;2023-09-12T12:53:49;30.60;1.00
20650;DHT22;10484;48.736;9.332;2023-09-12T12:56:27;30.70;1.00
20650;DHT22;10484;48.736;9.332;2023-09-12T12:58:55;30.70;1.00
20650;DHT22;10484;48.736;9.332;2023-09-12T13:01:23;30.70;1.00
20650;DHT22;10484;48.736;9.332;2023-09-12T13:03:48;30.80;1.00
20650;DHT22;10484;48.736;9.332;2023-09-12T13:06:18;30.80;1.00
20650;DHT22;10484;48.736;9.332;2023-09-12T13:08:45;30.90;1.00
20650;DHT22;10484;48.736;9.332;2023-09-12T13:11:12;31.00;1.00
20650;DHT22;10484;48.736;9.332;2023-09-12T13:13:38;31.00;1.00
20650;DHT22;10484;48.736;9.332;2023-09-12T13:16:05;31.10;1.00
20650;DHT22;10484;48.736;9.332;2023-09-12T13:18:33;31.20;1.00
20650;DHT22;10484;48.736;9.332;2023-09-12T13:20:59;31.40;1.00
20650;DHT22;10484;48.736;9.332;2023-09-12T13:23:25;31.40;1.00
20650;DHT22;10484;48.736;9.332;2023-09-12T13:25:51;31.50;1.00
20650;DHT22;10484;48.736;9.332;2023-09-12T13:28:17;31.50;1.00
20650;DHT22;10484;48.736;9.332;2023-09-12T13:30:43;31.50;1.00
20650;DHT22;10484;48.736;9.332;2023-09-12T13:33:13;31.60;1.00
20650;DHT22;10484;48.736;9.332;2023-09-12T13:35:41;31.60;1.00
20650;DHT22;10484;48.736;9.332;2023-09-12T13:38:07;31.60;1.00
20650;DHT22;10484;48.736;9.332;2023-09-12T13:40:38;31.70;1.00
20650;DHT22;10484;48.736;9.332;2023-09-12T13:43:04;31.80;1.00
20650;DHT22;10484;48.736;9.332;2023-09-12T13:45:30;31.80;1.00
20650;DHT22;10484;48.736;9.332;2023-09-12T13:47:55;31.80;1.00
20650;DHT22;10484;48.736;9.332;2023-09-12T13:50:21;31.80;1.00
20650;DHT22;10484;48.736;9.332;2023-09-12T13:52:48;31.80;1.00
20650;DHT22;10484;48.736;9.332;2023-09-12T13:55:14;31.80;1.00
20650;DHT22;10484;48.736;9.332;2023-09-12T13:57:41;31.90;1.00
20650;DHT22;10484;48.736;9.332;2023-09-12T14:00:08;31.90;1.00
20650;DHT22;10484;48.736;9.332;2023-09-12T14:02:33;31.90;1.00
20650;DHT22;10484;48.736;9.332;2023-09-12T14:04:59;31.90;1.00
20650;DHT22;10484;48.736;9.332;2023-09-12T14:07:26;31.90;1.00
20650;DHT22;10484;48.736;9.332;2023-09-12T14:09:51;31.80;1.00
20650;DHT22;10484;48.736;9.332;2023-09-12T14:12:20;31.80;1.00
20650;DHT22;10484;48.736;9.332;2023-09-12T14:14:45;31.80;1.00
20650;DHT22;10484;48.736;9.332;2023-09-12T14:17:11;31.80;1.00
20650;DHT22;10484;48.736;9.332;2023-09-12T14:19:37;31.80;1.00
20650;DHT22;10484;48.736;9.332;2023-09-12T14:22:02;31.80;1.00
20650;DHT22;10484;48.736;9.332;2023-09-12T14:24:28;31.80;1.00
20650;DHT22;10484;48.736;9.332;2023-09-12T14:26:54;31.80;1.00
20650;DHT22;10484;48.736;9.332;2023-09-12T14:29:19;31.80;1.00
20650;DHT22;10484;48.736;9.332;2023-09-12T14:31:45;31.70;1.00
20650;DHT22;10484;48.736;9.332;2023-09-12T14:34:19;31.70;1.00
20650;DHT22;10484;48.736;9.332;2023-09-12T14:36:45;31.70;1.00
20650;DHT22;10484;48.736;9.332;2023-09-12T14:39:13;31.60;1.00
20650;DHT22;10484;48.736;9.332;2023-09-12T14:41:40;31.50;1.00
20650;DHT22;10484;48.736;9.332;2023-09-12T14:44:06;31.50;1.00
20650;DHT22;10484;48.736;9.332;2023-09-12T14:46:31;31.50;1.00
20650;DHT22;10484;48.736;9.332;2023-09-12T14:48:57;31.40;1.00
20650;DHT22;10484;48.736;9.332;2023-09-12T14:51:23;31.30;1.00
20650;DHT22;10484;48.736;9.332;2023-09-12T14:53:48;31.30;1.00
20650;DHT22;10484;48.736;9.332;2023-09-12T14:56:14;31.40;1.00
20650;DHT22;10484;48.736;9.332;2023-09-12T14:58:39;31.50;1.00
20650;DHT22;10484;48.736;9.332;2023-09-12T15:01:05;31.50;1.00
20650;DHT22;10484;48.736;9.332;2023-09-12T15:03:30;31.60;1.00
20650;DHT22;10484;48.736;9.332;2023-09-12T15:05:56;31.60;1.00
20650;DHT22;10484;48.736;9.332;2023-09-12T15:08:22;31.60;1.00
20650;DHT22;10484;48.736;9.332;2023-09-12T15:10:47;31.60;1.00
20650;DHT22;10484;48.736;9.332;2023-09-12T15:13:13;31.60;1.00
20650;DHT22;10484;48.736;9.332;2023-09-12T15:15:39;31.60;1.00
20650;DHT22;10484;48.736;9.332;2023-09-12T15:18:05;31.60;1.00
20650;DHT22;10484;48.736;9.332;2023-09-12T15:20:32;31.60;1.00
20650;DHT22;10484;48.736;9.332;2023-09-12T15:22:57;31.60;1.00
20650;DHT22;10484;48.736;9.332;2023-09-12T15:25:23;31.50;1.00
20650;DHT22;10484;48.736;9.332;2023-09-12T15:27:49;31.50;1.00
20650;DHT22;10484;48.736;9.332;2023-09-12T15:30:14;31.50;1.00
20650;DHT22;10484;48.736;9.332;2023-09-12T15:32:40;31.40;1.00
20650;DHT22;10484;48.736;9.332;2023-09-12T15:35:06;31.40;1.00
20650;DHT22;10484;48.736;9.332;2023-09-12T15:37:32;31.40;1.00
20650;DHT22;10484;48.736;9.332;2023-09-12T15:39:58;31.30;1.00
20650;DHT22;10484;48.736;9.332;2023-09-12T15:42:23;31.30;1.00
20650;DHT22;10484;48.736;9.332;2023-09-12T15:44:49;31.30;1.00
20650;DHT22;10484;48.736;9.332;2023-09-12T15:47:15;31.30;1.00
20650;DHT22;10484;48.736;9.332;2023-09-12T15:49:40;31.30;1.00
20650;DHT22;10484;48.736;9.332;2023-09-12T15:52:06;31.20;1.00
20650;DHT22;10484;48.736;9.332;2023-09-12T15:54:32;31.20;1.00
20650;DHT22;10484;48.736;9.332;2023-09-12T15:56:58;31.10;1.00
20650;DHT22;10484;48.736;9.332;2023-09-12T15:59:23;31.10;1.00
20650;DHT22;10484;48.736;9.332;2023-09-12T16:01:50;31.00;1.00
20650;DHT22;10484;48.736;9.332;2023-09-12T16:04:16;30.90;1.00
20650;DHT22;10484;48.736;9.332;2023-09-12T16:06:42;30.90;1.00
20650;DHT22;10484;48.736;9.332;2023-09-12T16:09:08;30.80;1.00
20650;DHT22;10484;48.736;9.332;2023-09-12T16:11:34;30.80;1.00
20650;DHT22;10484;48.736;9.332;2023-09-12T16:14:00;30.70;1.00